createdAt,value
2023-03-31T00:00:05.966Z,3.38
2023-03-31T00:02:41.853Z,4.25
2023-03-31T00:05:37.896Z,3.78
2023-03-31T00:08:21.440Z,4.22
2023-03-31T00:10:51.169Z,4.57
2023-03-31T00:13:33.331Z,4.43
2023-03-31T00:16:11.327Z,4.50
2023-03-31T00:18:53.649Z,4.82
2023-03-31T00:21:26.058Z,4.95
2023-03-31T00:23:58.695Z,4.95
2023-03-31T00:26:26.306Z,4.35
2023-03-31T00:28:53.446Z,4.32
2023-03-31T00:31:21.234Z,4.38
2023-03-31T00:33:50.389Z,4.45
2023-03-31T00:36:21.553Z,4.10
2023-03-31T00:38:49.153Z,3.78
2023-03-31T00:41:33.088Z,3.97
2023-03-31T00:44:24.875Z,4.30
2023-03-31T00:47:21.299Z,3.47
2023-03-31T00:52:48.682Z,3.72
2023-03-31T00:55:27.805Z,4.07
2023-03-31T00:58:16.268Z,3.08
2023-03-31T01:00:53.690Z,3.60
2023-03-31T01:03:25.558Z,3.78
2023-03-31T01:05:59.640Z,3.85
2023-03-31T01:08:43.729Z,4.05
2023-03-31T01:11:14.093Z,3.30
2023-03-31T01:13:52.307Z,3.85
2023-03-31T01:16:35.344Z,3.60
2023-03-31T01:19:03.220Z,3.60
2023-03-31T01:22:07.554Z,3.75
2023-03-31T01:24:51.612Z,4.18
2023-03-31T01:28:14.310Z,4.20
2023-03-31T01:31:32.143Z,3.67
2023-03-31T01:34:50.302Z,3.60
2023-03-31T01:37:43.732Z,3.38
2023-03-31T01:40:44.905Z,3.25
2023-03-31T01:43:28.634Z,3.50
2023-03-31T01:46:18.375Z,3.63
2023-03-31T01:49:06.953Z,3.80
2023-03-31T01:52:18.415Z,3.83
2023-03-31T01:55:16.072Z,4.13
2023-03-31T01:58:38.379Z,3.85
2023-03-31T02:01:29.876Z,3.70
2023-03-31T02:04:30.085Z,3.80
2023-03-31T02:07:28.118Z,3.50
2023-03-31T02:10:03.310Z,3.78
2023-03-31T02:12:45.542Z,3.78
2023-03-31T02:15:31.015Z,3.75
2023-03-31T02:18:16.046Z,3.50
2023-03-31T02:21:16.567Z,4.15
2023-03-31T02:23:55.121Z,4.05
2023-03-31T02:26:48.293Z,4.40
2023-03-31T02:29:26.533Z,3.90
2023-03-31T02:32:25.136Z,4.32
2023-03-31T02:34:55.863Z,4.22
2023-03-31T02:37:32.548Z,3.90
2023-03-31T02:40:13.344Z,4.22
2023-03-31T02:43:02.450Z,3.65
2023-03-31T02:45:51.700Z,3.97
2023-03-31T02:48:37.962Z,3.63
2023-03-31T02:51:10.458Z,4.05
2023-03-31T02:54:15.682Z,4.97
2023-03-31T02:56:58.892Z,4.40
2023-03-31T02:59:59.883Z,4.45
2023-03-31T03:03:08.003Z,4.30
2023-03-31T03:05:54.919Z,4.10
2023-03-31T03:09:02.133Z,4.35
2023-03-31T03:11:40.515Z,4.10
2023-03-31T03:14:26.417Z,4.50
2023-03-31T03:17:13.582Z,3.92
2023-03-31T03:19:45.150Z,4.70
2023-03-31T03:22:24.110Z,4.38
2023-03-31T03:24:52.422Z,4.75
2023-03-31T03:27:24.785Z,4.93
2023-03-31T03:30:03.317Z,4.45
2023-03-31T03:32:31.144Z,4.32
2023-03-31T03:35:00.722Z,5.15
2023-03-31T03:37:29.110Z,4.97
2023-03-31T03:40:00.599Z,4.88
2023-03-31T03:42:31.978Z,4.70
2023-03-31T03:45:12.754Z,5.15
2023-03-31T03:48:15.556Z,4.82
2023-03-31T03:50:48.583Z,5.07
2023-03-31T03:53:28.199Z,5.05
2023-03-31T03:56:02.425Z,5.30
2023-03-31T03:58:34.917Z,5.07
2023-03-31T04:01:08.870Z,5.25
2023-03-31T04:03:45.656Z,4.68
2023-03-31T04:06:20.562Z,5.45
2023-03-31T04:08:49.992Z,5.55
2023-03-31T04:11:21.153Z,5.80
2023-03-31T04:13:48.191Z,5.30
2023-03-31T04:16:17.833Z,5.78
2023-03-31T04:18:50.826Z,5.95
2023-03-31T04:21:25.626Z,5.63
2023-03-31T04:24:12.312Z,5.40
2023-03-31T04:26:44.847Z,5.72
2023-03-31T04:29:21.055Z,5.72
2023-03-31T04:31:48.288Z,5.43
2023-03-31T04:34:18.296Z,5.95
2023-03-31T04:36:47.972Z,6.38
2023-03-31T04:39:18.488Z,6.38
2023-03-31T04:41:57.668Z,5.90
2023-03-31T04:44:24.542Z,6.15
2023-03-31T04:46:51.350Z,6.30
2023-03-31T04:49:18.129Z,6.80
2023-03-31T04:51:45.076Z,6.70
2023-03-31T04:54:12.245Z,7.00
2023-03-31T04:56:45.410Z,6.82
2023-03-31T04:59:12.354Z,6.60
2023-03-31T05:01:46.874Z,6.70
2023-03-31T05:04:17.438Z,6.85
2023-03-31T05:06:52.057Z,7.03
2023-03-31T05:09:24.069Z,8.60
2023-03-31T05:12:03.136Z,7.22
2023-03-31T05:14:32.411Z,7.35
2023-03-31T05:17:07.061Z,7.07
2023-03-31T05:19:38.817Z,7.65
2023-03-31T05:22:14.496Z,8.00
2023-03-31T05:24:47.288Z,8.23
2023-03-31T05:27:16.743Z,7.90
2023-03-31T05:29:49.445Z,8.35
2023-03-31T05:32:25.122Z,8.27
2023-03-31T05:34:53.122Z,8.80
2023-03-31T05:37:22.206Z,9.73
2023-03-31T05:39:51.815Z,10.82
2023-03-31T05:42:19.872Z,8.82
2023-03-31T05:44:46.828Z,9.30
2023-03-31T05:47:23.859Z,8.90
2023-03-31T05:49:51.213Z,8.40
2023-03-31T05:52:40.692Z,8.70
2023-03-31T05:55:08.182Z,8.60
2023-03-31T05:57:36.485Z,9.10
2023-03-31T06:00:11.446Z,9.38
2023-03-31T06:02:39.614Z,9.20
2023-03-31T06:05:10.491Z,8.30
2023-03-31T06:07:40.003Z,9.50
2023-03-31T06:10:10.864Z,9.05
2023-03-31T06:12:37.854Z,9.27
2023-03-31T06:15:04.877Z,9.73
2023-03-31T06:17:31.722Z,8.60
2023-03-31T06:20:04.261Z,9.13
2023-03-31T06:22:36.955Z,9.38
2023-03-31T06:25:07.220Z,9.30
2023-03-31T06:27:34.164Z,8.50
2023-03-31T06:30:00.911Z,8.85
2023-03-31T06:32:46.652Z,8.20
2023-03-31T06:35:13.453Z,7.60
2023-03-31T06:37:40.275Z,7.13
2023-03-31T06:40:07.938Z,7.38
2023-03-31T06:42:39.390Z,7.53
2023-03-31T06:45:06.640Z,7.10
2023-03-31T06:47:34.568Z,7.05
2023-03-31T06:50:01.520Z,7.32
2023-03-31T06:52:28.350Z,6.60
2023-03-31T06:54:57.322Z,7.10
2023-03-31T06:57:24.341Z,6.97
2023-03-31T06:59:59.243Z,6.40
2023-03-31T07:02:26.043Z,5.70
2023-03-31T07:04:52.969Z,6.78
2023-03-31T07:07:23.821Z,6.25
2023-03-31T07:09:50.630Z,6.22
2023-03-31T07:12:20.735Z,5.85
2023-03-31T07:14:50.729Z,5.90
2023-03-31T07:17:20.368Z,6.80
2023-03-31T07:19:48.184Z,6.97
2023-03-31T07:22:15.758Z,6.88
2023-03-31T07:24:42.903Z,7.30
2023-03-31T07:27:09.780Z,6.70
2023-03-31T07:29:36.374Z,7.05
2023-03-31T07:32:03.089Z,7.20
2023-03-31T07:34:33.929Z,6.78
2023-03-31T07:37:04.745Z,7.03
2023-03-31T07:39:31.480Z,7.55
2023-03-31T07:41:58.149Z,6.90
2023-03-31T07:44:24.976Z,6.78
2023-03-31T07:46:51.638Z,6.35
2023-03-31T07:49:21.138Z,6.40
2023-03-31T07:51:57.052Z,6.28
2023-03-31T07:54:30.132Z,6.35
2023-03-31T07:57:02.487Z,6.32
2023-03-31T07:59:33.227Z,6.28
2023-03-31T08:02:01.287Z,6.13
2023-03-31T08:04:28.306Z,5.65
2023-03-31T08:06:57.102Z,6.38
2023-03-31T08:09:23.977Z,5.90
2023-03-31T08:11:53.378Z,7.03
2023-03-31T08:14:30.449Z,6.18
2023-03-31T08:17:05.473Z,6.45
2023-03-31T08:19:33.502Z,6.05
2023-03-31T08:22:00.337Z,6.88
2023-03-31T08:24:28.524Z,6.90
2023-03-31T08:26:55.238Z,5.97
2023-03-31T08:29:21.996Z,6.35
2023-03-31T08:31:49.745Z,6.30
2023-03-31T08:34:34.736Z,6.03
2023-03-31T08:37:02.965Z,5.63
2023-03-31T08:39:30.912Z,5.75
2023-03-31T08:42:04.523Z,5.82
2023-03-31T08:45:26.087Z,5.68
2023-03-31T08:48:26.029Z,5.30
2023-03-31T08:51:06.181Z,5.60
2023-03-31T08:53:42.504Z,5.70
2023-03-31T08:58:44.408Z,5.30
2023-03-31T09:01:55.715Z,5.03
2023-03-31T09:04:58.602Z,5.85
2023-03-31T09:07:40.526Z,4.57
2023-03-31T09:10:38.222Z,3.55
2023-03-31T09:13:23.260Z,3.20
2023-03-31T09:16:07.294Z,3.47
2023-03-31T09:18:38.309Z,3.70
2023-03-31T09:21:15.002Z,3.22
2023-03-31T09:23:59.706Z,3.55
2023-03-31T09:26:36.265Z,3.53
2023-03-31T09:29:10.303Z,3.33
2023-03-31T09:31:39.054Z,3.28
2023-03-31T09:34:14.689Z,3.10
2023-03-31T09:36:42.093Z,3.30
2023-03-31T09:39:14.944Z,3.35
2023-03-31T09:41:49.316Z,2.92
2023-03-31T09:44:25.784Z,2.78
2023-03-31T09:46:53.772Z,3.25
2023-03-31T09:49:26.139Z,2.60
2023-03-31T09:52:03.472Z,2.90
2023-03-31T09:54:51.074Z,2.58
2023-03-31T09:57:36.128Z,3.05
2023-03-31T10:00:13.986Z,2.67
2023-03-31T10:02:49.534Z,2.75
2023-03-31T10:05:36.382Z,2.33
2023-03-31T10:08:28.089Z,2.70
2023-03-31T10:10:57.776Z,2.80
2023-03-31T10:13:29.463Z,2.90
2023-03-31T10:16:04.875Z,2.67
2023-03-31T10:18:35.382Z,2.40
2023-03-31T10:21:05.134Z,2.50
2023-03-31T10:23:37.529Z,2.55
2023-03-31T10:26:05.075Z,2.45
2023-03-31T10:28:35.307Z,2.70
2023-03-31T10:31:03.590Z,2.55
2023-03-31T10:33:34.954Z,2.60
2023-03-31T10:36:12.293Z,2.72
2023-03-31T10:38:45.182Z,2.90
2023-03-31T10:41:13.268Z,2.53
2023-03-31T10:43:50.485Z,2.90
2023-03-31T10:46:17.278Z,2.80
2023-03-31T10:48:45.195Z,2.70
2023-03-31T10:51:17.365Z,2.70
2023-03-31T10:53:49.576Z,2.67
2023-03-31T10:56:38.068Z,2.53
2023-03-31T10:59:38.839Z,2.50
2023-03-31T11:02:42.801Z,2.80
2023-03-31T11:05:16.297Z,3.05
2023-03-31T11:08:08.057Z,2.80
2023-03-31T11:11:05.935Z,2.42
2023-03-31T11:13:40.850Z,2.78
2023-03-31T11:16:28.315Z,2.70
2023-03-31T11:19:19.645Z,2.88
2023-03-31T11:22:08.029Z,2.65
2023-03-31T11:25:14.660Z,2.38
2023-03-31T11:28:08.927Z,2.33
2023-03-31T11:31:24.507Z,2.30
2023-03-31T11:34:35.378Z,2.20
2023-03-31T11:37:39.271Z,2.40
2023-03-31T11:40:39.832Z,2.67
2023-03-31T11:43:34.006Z,2.55
2023-03-31T11:46:34.116Z,2.83
2023-03-31T11:49:23.765Z,2.50
2023-03-31T11:52:30.810Z,2.50
2023-03-31T11:55:15.980Z,2.88
2023-03-31T11:57:53.541Z,2.40
2023-03-31T12:00:35.200Z,2.35
2023-03-31T12:03:55.354Z,2.33
2023-03-31T12:06:56.857Z,2.50
2023-03-31T12:10:16.607Z,2.30
2023-03-31T12:13:06.417Z,2.60
2023-03-31T12:16:03.965Z,2.65
2023-03-31T12:18:54.429Z,2.20
2023-03-31T12:24:20.514Z,2.40
2023-03-31T12:27:03.782Z,2.47
2023-03-31T12:29:32.439Z,6.22
2023-03-31T12:32:18.917Z,6.78
2023-03-31T12:34:57.763Z,7.00
2023-03-31T12:37:44.390Z,3.75
2023-03-31T12:40:43.717Z,3.00
2023-03-31T12:43:32.441Z,4.35
2023-03-31T12:46:24.948Z,7.65
2023-03-31T12:49:34.365Z,5.72
2023-03-31T12:52:13.322Z,2.85
2023-03-31T12:55:27.283Z,2.67
2023-03-31T12:58:32.441Z,2.90
2023-03-31T13:01:07.745Z,2.67
2023-03-31T13:04:22.001Z,2.67
2023-03-31T13:06:59.579Z,2.97
2023-03-31T13:09:48.441Z,2.67
2023-03-31T13:12:22.397Z,2.50
2023-03-31T13:14:56.997Z,2.88
2023-03-31T13:17:31.863Z,2.80
2023-03-31T13:20:36.088Z,2.90
2023-03-31T13:23:22.060Z,2.53
2023-03-31T13:25:55.981Z,2.70
2023-03-31T13:28:33.592Z,2.55
2023-03-31T13:31:04.982Z,2.50
2023-03-31T13:33:41.436Z,2.80
2023-03-31T13:36:29.702Z,2.70
2023-03-31T13:39:30.397Z,2.83
2023-03-31T13:42:07.254Z,2.50
2023-03-31T13:44:38.510Z,2.55
2023-03-31T13:47:57.794Z,2.50
2023-03-31T13:50:41.760Z,2.30
2023-03-31T13:53:11.531Z,2.33
2023-03-31T13:55:58.612Z,2.42
2023-03-31T13:58:59.602Z,2.42
2023-03-31T14:01:38.531Z,2.33
2023-03-31T14:04:24.683Z,2.13
2023-03-31T14:07:17.076Z,2.45
2023-03-31T14:09:53.102Z,2.85
2023-03-31T14:12:40.268Z,2.70
2023-03-31T14:15:21.472Z,2.50
2023-03-31T14:17:58.103Z,2.90
2023-03-31T14:20:40.417Z,2.75
2023-03-31T14:23:26.012Z,2.90
2023-03-31T14:25:56.018Z,2.60
2023-03-31T14:28:54.253Z,2.47
2023-03-31T14:31:38.020Z,2.53
2023-03-31T14:34:40.203Z,2.38
2023-03-31T14:37:21.085Z,2.47
2023-03-31T14:39:51.436Z,2.47
2023-03-31T14:42:40.392Z,3.30
2023-03-31T14:45:20.880Z,2.60
2023-03-31T14:48:01.142Z,2.70
2023-03-31T14:50:34.942Z,3.03
2023-03-31T14:53:05.526Z,2.92
2023-03-31T14:55:49.351Z,3.13
2023-03-31T14:58:37.866Z,3.25
2023-03-31T15:01:10.647Z,3.17
2023-03-31T15:03:43.995Z,3.25
2023-03-31T15:06:11.704Z,3.60
2023-03-31T15:08:40.659Z,3.25
2023-03-31T15:11:19.084Z,3.00
2023-03-31T15:14:01.243Z,2.90
2023-03-31T15:16:30.872Z,2.50
2023-03-31T15:19:03.357Z,2.60
2023-03-31T15:21:38.203Z,2.55
2023-03-31T15:24:05.473Z,2.45
2023-03-31T15:26:41.510Z,2.40
2023-03-31T15:29:22.678Z,2.10
2023-03-31T15:31:49.939Z,2.00
2023-03-31T15:34:25.864Z,1.73
2023-03-31T15:36:55.800Z,2.20
2023-03-31T15:39:25.746Z,2.08
2023-03-31T15:42:04.449Z,1.90
2023-03-31T15:44:46.332Z,2.05
2023-03-31T15:47:33.145Z,2.13
2023-03-31T15:52:47.877Z,2.00
2023-03-31T15:55:29.087Z,1.70
2023-03-31T15:58:02.904Z,1.65
2023-03-31T16:00:52.502Z,1.58
2023-03-31T16:03:38.651Z,1.85
2023-03-31T16:06:31.470Z,1.67
2023-03-31T16:09:09.244Z,1.70
2023-03-31T16:11:48.193Z,1.58
2023-03-31T16:14:25.386Z,2.00
2023-03-31T16:16:58.983Z,1.80
2023-03-31T16:19:31.063Z,1.65
2023-03-31T16:22:02.081Z,1.40
2023-03-31T16:24:43.878Z,1.50
2023-03-31T16:27:29.723Z,1.70
2023-03-31T16:30:32.279Z,1.50
2023-03-31T16:36:31.581Z,1.63
2023-03-31T16:42:33.788Z,1.45
2023-03-31T16:45:24.534Z,1.70
2023-03-31T16:48:38.306Z,1.63
2023-03-31T16:51:52.091Z,1.83
2023-03-31T16:54:45.169Z,1.70
2023-03-31T16:57:27.789Z,1.70
2023-03-31T17:00:10.117Z,1.83
2023-03-31T17:03:03.389Z,1.50
2023-03-31T17:05:50.320Z,1.80
2023-03-31T17:08:26.536Z,1.48
2023-03-31T17:11:15.278Z,1.40
2023-03-31T17:17:05.066Z,1.75
2023-03-31T17:19:44.102Z,1.70
2023-03-31T17:22:19.288Z,1.80
2023-03-31T17:24:58.240Z,1.77
2023-03-31T17:27:29.384Z,1.90
2023-03-31T17:29:56.018Z,2.13
2023-03-31T17:32:23.058Z,2.13
2023-03-31T17:34:50.448Z,2.03
2023-03-31T17:37:18.549Z,2.28
2023-03-31T17:39:45.677Z,1.85
2023-03-31T17:42:13.414Z,1.80
2023-03-31T17:44:40.695Z,2.00
2023-03-31T17:47:07.320Z,2.22
2023-03-31T17:49:34.085Z,2.20
2023-03-31T17:52:00.906Z,2.20
2023-03-31T17:54:27.579Z,2.30
2023-03-31T17:56:54.422Z,2.30
2023-03-31T17:59:22.127Z,2.75
2023-03-31T18:01:48.982Z,2.25
2023-03-31T18:04:15.744Z,2.20
2023-03-31T18:06:44.733Z,3.80
2023-03-31T18:09:11.887Z,3.90
2023-03-31T18:11:38.718Z,3.70
2023-03-31T18:14:06.331Z,3.65
2023-03-31T18:16:33.831Z,5.75
2023-03-31T18:19:00.506Z,5.70
2023-03-31T18:21:27.683Z,4.63
2023-03-31T18:23:55.082Z,4.15
2023-03-31T18:26:26.083Z,4.07
2023-03-31T18:28:52.800Z,3.60
2023-03-31T18:31:21.355Z,3.78
2023-03-31T18:33:48.433Z,2.97
2023-03-31T18:36:19.746Z,3.17
2023-03-31T18:38:47.903Z,3.20
2023-03-31T18:41:15.698Z,2.95
2023-03-31T18:43:42.282Z,2.75
2023-03-31T18:46:10.567Z,2.67
2023-03-31T18:48:38.463Z,2.50
2023-03-31T18:51:05.099Z,2.47
2023-03-31T18:53:31.787Z,2.95
2023-03-31T18:55:58.964Z,2.85
2023-03-31T18:58:27.832Z,2.80
2023-03-31T19:00:55.565Z,2.80
2023-03-31T19:03:22.634Z,3.10
2023-03-31T19:05:50.213Z,3.10
2023-03-31T19:08:16.875Z,3.45
2023-03-31T19:10:43.630Z,3.13
2023-03-31T19:13:14.695Z,3.50
2023-03-31T19:15:41.980Z,3.53
2023-03-31T19:18:14.192Z,3.30
2023-03-31T19:20:40.880Z,3.58
2023-03-31T19:23:07.499Z,3.50
2023-03-31T19:25:34.120Z,3.45
2023-03-31T19:28:00.725Z,3.25
2023-03-31T19:30:28.146Z,3.50
2023-03-31T19:32:54.922Z,3.40
2023-03-31T19:35:22.050Z,6.30
2023-03-31T19:37:48.900Z,5.40
2023-03-31T19:40:15.766Z,3.47
2023-03-31T19:42:44.217Z,2.88
2023-03-31T19:45:10.928Z,2.97
2023-03-31T19:47:37.913Z,2.55
2023-03-31T19:50:04.904Z,2.67
2023-03-31T19:52:31.735Z,2.92
2023-03-31T19:54:58.304Z,3.33
2023-03-31T19:57:25.063Z,3.50
2023-03-31T19:59:52.200Z,3.72
2023-03-31T20:02:19.118Z,2.92
2023-03-31T20:04:46.009Z,5.60
2023-03-31T20:07:12.707Z,3.60
2023-03-31T20:09:39.664Z,3.10
2023-03-31T20:12:06.978Z,2.97
2023-03-31T20:14:34.139Z,3.28
2023-03-31T20:17:01.187Z,2.83
2023-03-31T20:19:27.831Z,3.08
2023-03-31T20:21:56.066Z,3.13
2023-03-31T20:24:23.250Z,3.20
2023-03-31T20:26:50.281Z,3.00
2023-03-31T20:29:17.021Z,6.35
2023-03-31T20:31:43.720Z,8.82
2023-03-31T20:34:14.129Z,4.80
2023-03-31T20:36:42.532Z,3.80
2023-03-31T20:39:09.367Z,3.40
2023-03-31T20:41:40.164Z,3.10
2023-03-31T20:44:11.918Z,11.15
2023-03-31T20:46:40.731Z,3.95
2023-03-31T20:49:07.803Z,3.15
2023-03-31T20:51:37.556Z,3.22
2023-03-31T20:54:05.593Z,3.10
2023-03-31T20:56:35.926Z,2.80
2023-03-31T20:59:03.707Z,2.70
2023-03-31T21:01:33.328Z,3.00
2023-03-31T21:04:01.773Z,2.83
2023-03-31T21:06:30.466Z,2.90
2023-03-31T21:08:59.968Z,3.22
2023-03-31T21:11:27.478Z,3.08
2023-03-31T21:13:54.312Z,3.42
2023-03-31T21:16:22.007Z,3.10
2023-03-31T21:18:48.779Z,3.30
2023-03-31T21:21:18.720Z,3.35
2023-03-31T21:23:46.624Z,3.67
2023-03-31T21:26:15.663Z,3.50
2023-03-31T21:28:43.210Z,3.58
2023-03-31T21:31:14.913Z,3.53
2023-03-31T21:33:43.149Z,3.55
2023-03-31T21:36:16.442Z,3.80
2023-03-31T21:38:44.721Z,3.65
2023-03-31T21:41:17.509Z,3.70
2023-03-31T21:43:44.967Z,3.75
2023-03-31T21:46:24.156Z,3.58
2023-03-31T21:48:51.068Z,3.80
2023-03-31T21:51:19.961Z,3.80
2023-03-31T21:53:47.260Z,3.65
2023-03-31T21:56:14.290Z,4.00
2023-03-31T21:58:41.080Z,3.78
2023-03-31T22:01:08.436Z,3.92
2023-03-31T22:03:36.698Z,3.95
2023-03-31T22:06:07.173Z,3.42
2023-03-31T22:08:36.458Z,4.20
2023-03-31T22:11:04.630Z,4.10
2023-03-31T22:13:31.754Z,4.00
2023-03-31T22:16:00.380Z,4.18
2023-03-31T22:18:28.340Z,4.22
2023-03-31T22:20:55.031Z,4.10
2023-03-31T22:23:21.828Z,3.95
2023-03-31T22:25:48.862Z,3.92
2023-03-31T22:28:16.774Z,4.28
2023-03-31T22:30:44.042Z,3.83
2023-03-31T22:33:10.698Z,4.18
2023-03-31T22:35:37.483Z,4.15
2023-03-31T22:38:05.696Z,4.05
2023-03-31T22:40:34.543Z,3.78
2023-03-31T22:43:01.628Z,4.05
2023-03-31T22:45:28.462Z,3.80
2023-03-31T22:47:55.472Z,3.97
2023-03-31T22:50:23.180Z,3.60
2023-03-31T22:52:49.805Z,3.55
2023-03-31T22:55:16.961Z,3.88
2023-03-31T22:57:44.503Z,3.80
2023-03-31T23:00:12.707Z,3.67
2023-03-31T23:02:39.737Z,3.80
2023-03-31T23:05:06.884Z,3.25
2023-03-31T23:07:34.735Z,3.85
2023-03-31T23:10:01.437Z,3.85
2023-03-31T23:12:28.766Z,4.00
2023-03-31T23:14:55.418Z,4.10
2023-03-31T23:17:22.032Z,4.40
2023-03-31T23:19:48.749Z,4.40
2023-03-31T23:22:15.675Z,3.80
2023-03-31T23:24:42.588Z,3.95
2023-03-31T23:27:09.457Z,3.90
2023-03-31T23:29:36.519Z,4.00
2023-03-31T23:32:03.713Z,4.07
2023-03-31T23:34:30.553Z,3.92
2023-03-31T23:36:57.283Z,4.18
2023-03-31T23:39:24.100Z,4.40
2023-03-31T23:41:51.161Z,4.57
2023-03-31T23:44:18.247Z,4.18
2023-03-31T23:46:45.286Z,4.20
2023-03-31T23:49:12.810Z,4.20
2023-03-31T23:51:39.451Z,3.90
2023-03-31T23:54:06.126Z,4.10
2023-03-31T23:56:32.862Z,4.13
2023-03-31T23:58:59.611Z,4.30
